Station FSKM2 - 8574728 - Francis Scott Key Bridge, MD Image indicating link to RSS feed of recent meteorological observations for station FSKM2


Conditions at FSKM2 as of
(6:00 pm EDT)
2200 GMT on 06/13/2024:
     

Click on the graph icon in the table below to see a time series plot of the last five days of that observation.

5-day plot - Wind Direction Wind Direction (WDIR): S ( 170 deg true )
5-day plot - Wind Speed Wind Speed (WSPD): 17.1 kts
5-day plot - Wind Gust Wind Gust (GST): 18.1 kts
5-day plot - Wind Speed at 10 Meters Wind Speed at 10 meters (WSPD10M): 17.5 kts
5-day plot - Wind Speed at 20 Meters Wind Speed at 20 meters (WSPD20M): 19.4 kts
5-day plot -  Wind Speed, Wind Gust and Atmospheric Pressure Combined plot of Wind Speed, Gust, and Air Pressure
NOS Water Level Observation Network Water Level
Previous observations
TIME
(EDT)
5-day plot - Wind Direction
WDIR
 
5-day plot - Wind Speed
WSPD
kts
5-day plot - Wind Gust
GST
kts
5-day plot - Wave Height
WVHT
ft
5-day plot - Dominant Wave Period
DPD
sec
5-day plot - Average Wave Period
APD
sec
5-day plot - Mean Wave Direction
MWD
 
5-day plot - Atmospheric Pressure
PRES
in
5-day plot - Pressure Tendency
PTDY
in
5-day plot - Air Temperature
ATMP
°F
5-day plot - Water Temperature
WTMP
°F
5-day plot - Dew Point
DEWP
°F
5-day plot - Salinity
SAL
psu
5-day plot - Visibility
VIS
nmi
5-day plot - Tide (above MLLW)
TIDE
ft
2024-06-13 05:54 pmSSE 18.1 19.0------------
2024-06-13 05:48 pm S 15.9 18.1------ 80.8-----
2024-06-13 05:42 pm S 19.0 22.0------ 80.8-----
2024-06-13 05:36 pm S 17.1 20.0------ 81.1-----
2024-06-13 05:30 pm S 15.0 19.0------ 81.0-----
2024-06-13 05:24 pmSSE 15.9 18.1------ 81.5-----
2024-06-13 05:18 pm S 15.0 17.1------------
2024-06-13 05:12 pmSSE 15.0 15.9------------
2024-06-13 05:06 pmSSE 15.0 18.1------------
2024-06-13 05:00 pmSSE 15.0 18.1------ 80.2-----
2024-06-13 04:54 pmSSE 14.0 15.9------ 79.9-----
2024-06-13 04:48 pmSSE 14.0 15.9------ 80.1-----
2024-06-13 04:42 pmSSE 12.0 15.0------ 79.9-----
2024-06-13 04:36 pmSSE 15.0 15.9------ 80.2-----
2024-06-13 04:30 pmSSE 15.9 17.1------ 80.6-----
2024-06-13 04:24 pmSSE 14.0 15.0------ 80.2-----
2024-06-13 04:18 pmSSE 15.0 18.1------------
2024-06-13 04:12 pmSSE 15.0 15.9------------
2024-06-13 04:06 pmSSE 15.9 17.1------------
2024-06-13 04:00 pmSSE 15.0 17.1------ 80.2-----
2024-06-13 03:54 pmSSE 14.0 15.9------ 80.2-----
2024-06-13 03:48 pmSSE 13.0 15.0------ 80.2-----
2024-06-13 03:42 pmSSE 12.0 14.0------ 80.4-----
2024-06-13 03:36 pmSSE 12.0 14.0------ 80.6-----
2024-06-13 03:30 pmSSE 12.0 14.0------------
2024-06-13 03:24 pmSSE 13.0 15.0------------
2024-06-13 03:18 pmSSE 13.0 15.0------ 80.2-----
2024-06-13 03:12 pmSSE 13.0 15.0------ 80.1-----
2024-06-13 03:06 pmSSE 13.0 15.9------ 80.2-----
2024-06-13 03:00 pmSSE 13.0 14.0------ 79.7-----
2024-06-13 02:54 pm SE 11.1 15.0------ 80.1-----
2024-06-13 02:48 pm SE 8.0 9.9------------
2024-06-13 02:42 pmSSE 11.1 14.0------------
2024-06-13 02:36 pmSSE 12.0 14.0------------
2024-06-13 02:30 pm SE 9.9 15.0------------
2024-06-13 02:24 pm SE 13.0 14.0------------
2024-06-13 02:18 pm SE 13.0 15.0------ 78.1-----
2024-06-13 02:12 pm SE 13.0 15.0------ 78.4-----
2024-06-13 02:06 pm SE 13.0 15.0------ 78.4-----
2024-06-13 02:00 pm SE 13.0 15.0------------
2024-06-13 01:54 pm SE 13.0 15.0------------
2024-06-13 01:48 pm SE 13.0 14.0------------
2024-06-13 01:42 pm SE 15.0 17.1------------
2024-06-13 01:36 pm SE 12.0 14.0------------
2024-06-13 01:30 pm--------- 77.7-----
2024-06-13 01:24 pm--------- 77.4-----
2024-06-13 01:18 pm SE 12.0 14.0------ 77.2-----
2024-06-13 01:12 pm SE 12.0 13.0------ 77.5-----
2024-06-13 01:06 pm SE 9.9 13.0------ 77.7-----
2024-06-13 01:00 pm--------- 77.5-----
2024-06-13 12:54 pm--------- 77.4-----
2024-06-13 12:48 pm SE 8.9 12.0------ 77.2-----
2024-06-13 12:42 pm SE 11.1 13.0------ 76.8-----
2024-06-13 12:36 pm SE 12.0 15.0------ 76.6-----
2024-06-13 12:30 pm--------- 76.5-----
2024-06-13 12:24 pm--------- 76.5-----
2024-06-13 12:18 pm SE 13.0 15.0------------
2024-06-13 12:12 pm SE 14.0 15.0------------
2024-06-13 12:06 pm SE 12.0 14.0------------
2024-06-13 12:00 pm SE 14.0 15.9------ 75.7-----
2024-06-13 11:54 am SE 13.0 14.0------ 75.9-----
2024-06-13 11:48 amESE 12.0 14.0------------
2024-06-13 11:42 am SE 12.0 13.0------------
2024-06-13 11:36 am SE 12.0 14.0------------
2024-06-13 11:30 amESE 12.0 13.0------------
2024-06-13 11:24 amESE 12.0 13.0------------
2024-06-13 11:18 amESE 12.0 13.0------ 74.5-----
2024-06-13 11:12 amESE 11.1 12.0------ 74.5-----
2024-06-13 11:06 amESE 9.9 12.0------ 74.3-----
2024-06-13 11:00 am SE 11.1 12.0------ 74.1-----
2024-06-13 10:54 am SE 9.9 11.1------ 74.5-----
2024-06-13 10:48 amESE 7.0 8.0------ 74.8-----
2024-06-13 10:42 amESE 7.0 8.0------ 74.7-----
2024-06-13 10:36 am SE 7.0 8.0------ 75.2-----
2024-06-13 10:30 amESE 7.0 8.0------------
2024-06-13 10:24 amESE 7.0 8.0------------
2024-06-13 10:18 amESE 5.1 6.0------ 74.5-----
2024-06-13 10:12 amESE 6.0 7.0------ 74.1-----
2024-06-13 10:06 amESE 5.1 6.0------ 73.8-----
2024-06-13 10:00 am E 4.1 4.1------ 73.6-----
2024-06-13 09:54 am E 2.9 4.1------ 73.2-----
2024-06-13 09:48 am E 4.1 4.1------ 73.0-----
2024-06-13 09:42 am E 1.9 2.9------ 73.2-----
2024-06-13 09:36 am E 1.9 1.9------ 73.2-----
2024-06-13 09:30 am E 1.0 1.9------ 73.2-----
2024-06-13 09:24 am E 1.9 1.9------ 73.0-----
2024-06-13 09:18 am- 0.0 1.0------ 73.2-----
2024-06-13 09:12 am S 1.0 1.9------ 72.1-----
2024-06-13 09:06 am S 1.9 2.9------ 72.0-----
2024-06-13 09:00 am S 2.9 2.9------ 71.6-----
2024-06-13 08:54 amSSW 4.1 5.1------ 71.2-----
2024-06-13 08:48 amSSW 4.1 4.1------ 71.2-----
2024-06-13 08:42 am S 5.1 6.0------ 71.2-----
2024-06-13 08:36 am S 5.1 6.0------ 70.9-----
2024-06-13 08:30 am S 5.1 6.0------ 70.5-----
2024-06-13 08:24 am S 6.0 6.0------ 70.2-----
2024-06-13 08:18 am S 6.0 7.0------ 70.0-----
2024-06-13 08:12 am S 6.0 7.0------ 70.0-----
2024-06-13 08:06 am S 7.0 7.0------ 69.8-----
2024-06-13 08:00 am S 7.0 8.0------ 69.8-----
2024-06-13 07:54 am S 7.0 8.9------ 69.4-----
2024-06-13 07:48 amSSE 8.0 8.9------------
2024-06-13 07:42 am S 7.0 8.0------------
2024-06-13 07:36 am S 7.0 8.0------------
2024-06-13 07:30 amSSE 5.1 6.0------ 69.3-----
2024-06-13 07:24 amSSE 5.1 6.0------ 68.9-----
2024-06-13 07:18 amSSE 5.1 5.1------ 68.9-----
2024-06-13 07:12 amSSE 4.1 5.1------ 68.7-----
2024-06-13 07:06 am S 4.1 5.1------ 68.9-----
2024-06-13 07:00 am S 2.9 4.1------ 68.9-----
2024-06-13 06:54 am S 2.9 4.1------ 69.1-----
2024-06-13 06:48 am S 2.9 4.1------ 68.9-----
2024-06-13 06:42 amSSE 2.9 4.1------ 68.9-----
2024-06-13 06:36 am S 2.9 2.9------ 69.1-----
2024-06-13 06:30 am S 2.9 4.1------ 69.1-----
2024-06-13 06:24 am S 1.9 2.9------ 69.1-----
2024-06-13 06:18 am S 2.9 4.1------ 68.7-----
2024-06-13 06:12 am S 2.9 4.1------ 68.7-----
2024-06-13 06:06 am S 2.9 2.9------ 68.9-----
2024-06-13 06:00 am S 4.1 5.1------ 68.9-----
2024-06-13 05:54 am S 4.1 4.1------ 68.9-----
2024-06-13 05:48 amSSE 4.1 4.1------ 68.9-----
2024-06-13 05:42 amSSE 2.9 4.1------ 68.9-----
2024-06-13 05:36 amSSE 4.1 5.1------ 68.9-----
2024-06-13 05:30 amSSE 4.1 4.1------ 69.1-----
2024-06-13 05:24 am S 4.1 5.1------ 69.1-----
2024-06-13 05:18 amSSE 2.9 4.1------ 68.9-----
2024-06-13 05:12 amSSE 2.9 2.9------ 68.9-----
2024-06-13 05:06 amSSE 2.9 4.1------ 68.7-----
2024-06-13 05:00 am S 4.1 4.1------ 68.9-----
2024-06-13 04:54 am S 4.1 4.1------ 68.9-----
2024-06-13 04:48 am S 2.9 4.1------ 68.9-----
2024-06-13 04:42 amSSE 2.9 4.1------ 69.1-----
2024-06-13 04:36 amSSE 2.9 2.9------ 68.7-----
2024-06-13 04:30 amSSE 1.9 1.9------ 68.7-----
2024-06-13 04:24 am S 1.9 2.9------ 68.7-----
2024-06-13 04:18 amSSW 1.9 2.9------ 68.7-----
2024-06-13 04:12 amSSW 1.0 1.9------ 68.7-----
2024-06-13 04:06 am SW 1.0 1.9------ 68.7-----
2024-06-13 04:00 amWSW 1.9 1.9------ 68.7-----
2024-06-13 03:54 am W 1.9 2.9------ 68.9-----
2024-06-13 03:48 am W 2.9 4.1------ 69.1-----
2024-06-13 03:42 amWSW 2.9 4.1------ 69.3-----
2024-06-13 03:36 am W 4.1 4.1------ 69.3-----
2024-06-13 03:30 am W 4.1 5.1------ 69.3-----
2024-06-13 03:24 am W 1.9 4.1------ 69.4-----
2024-06-13 03:18 am- 0.0 1.0------ 69.4-----
2024-06-13 03:12 am W 1.9 2.9------ 69.3-----
2024-06-13 03:06 amWNW 1.9 1.9------ 69.3-----
2024-06-13 03:00 amWNW 1.9 2.9------ 69.3-----
2024-06-13 02:54 amWNW 1.0 1.9------ 69.3-----
2024-06-13 02:48 am W 1.0 1.9------------
2024-06-13 02:42 amWSW 2.9 4.1------------
2024-06-13 02:36 amWSW 4.1 5.1------------
2024-06-13 02:30 amWSW 2.9 5.1------ 69.6-----
2024-06-13 02:24 am SW 5.1 7.0------ 69.8-----
2024-06-13 02:18 am SW 5.1 6.0------ 70.0-----
2024-06-13 02:12 am SW 5.1 6.0------ 70.2-----
2024-06-13 02:06 amSSW 5.1 6.0------ 70.2-----
2024-06-13 02:00 amSSW 5.1 7.0------------
2024-06-13 01:54 amSSW 6.0 8.0------------
2024-06-13 01:48 am--------- 70.7-----
2024-06-13 01:42 am--------- 71.1-----
2024-06-13 01:36 am--------- 71.1-----
2024-06-13 01:30 amSSW 6.0 7.0------ 71.2-----
2024-06-13 01:24 amSSW 6.0 8.0------ 71.4-----
2024-06-13 01:18 amSSW 7.0 8.0------ 71.8-----
2024-06-13 01:12 amSSW 6.0 7.0------ 72.0-----
2024-06-13 01:06 amSSW 5.1 6.0------ 72.0-----
2024-06-13 01:00 am--------- 72.0-----
2024-06-13 12:54 am--------- 72.0-----
2024-06-13 12:48 amSSW 6.0 7.0------ 71.8-----
2024-06-13 12:42 amSSW 7.0 8.0------ 71.8-----
2024-06-13 12:36 amSSW 8.0 9.9------ 71.8-----
2024-06-13 12:30 amSSW 8.0 9.9------ 71.8-----
2024-06-13 12:24 amSSW 7.0 8.9------ 71.6-----
2024-06-13 12:18 amSSW 8.0 8.9------ 71.6-----
2024-06-13 12:12 amSSW 7.0 8.9------ 71.8-----
2024-06-13 12:06 amSSW 7.0 8.0------ 71.8-----
2024-06-13 12:00 am SW 7.0 8.9------ 71.6-----
2024-06-12 11:54 pmSSW 7.0 8.9------ 71.6-----
2024-06-12 11:48 pmSSW 7.0 8.9------------
2024-06-12 11:42 pmSSW 7.0 8.9------------
2024-06-12 11:36 pmSSW 8.0 9.9------------
2024-06-12 11:30 pmSSW 7.0 8.9------------
2024-06-12 11:24 pmSSW 6.0 7.0------------
2024-06-12 11:18 pmSSW 6.0 7.0------------
2024-06-12 11:12 pmSSW 6.0 7.0------------
2024-06-12 11:06 pmSSW 5.1 6.0------------
2024-06-12 11:00 pmSSW 5.1 7.0------ 73.0-----
2024-06-12 10:54 pmSSW 6.0 7.0------ 73.0-----
2024-06-12 10:48 pmSSW 6.0 8.0------ 73.2-----
2024-06-12 10:42 pm S 7.0 8.0------ 73.0-----
2024-06-12 10:36 pm S 7.0 8.0------ 72.9-----
2024-06-12 10:30 pm S 7.0 8.9------ 72.9-----
2024-06-12 10:24 pm S 6.0 8.0------ 72.9-----
2024-06-12 10:18 pm S 7.0 8.0------ 72.9-----
2024-06-12 10:12 pmSSE 7.0 8.0------ 72.9-----
2024-06-12 10:06 pmSSE 6.0 8.9------ 73.0-----
2024-06-12 10:00 pmSSE 8.0 8.9------------
2024-06-12 09:54 pm S 8.0 8.9------------
2024-06-12 09:48 pm S 8.0 8.9------------
2024-06-12 09:42 pm S 7.0 8.9------------
2024-06-12 09:36 pmSSE 8.0 8.9------------
2024-06-12 09:30 pm S 8.0 8.9------ 73.6-----
2024-06-12 09:24 pm S 7.0 8.0------ 73.6-----
2024-06-12 09:18 pm S 6.0 7.0------------
2024-06-12 09:12 pm S 6.0 7.0------------
2024-06-12 09:06 pm S 6.0 7.0------------
2024-06-12 09:00 pm S 6.0 7.0------------
2024-06-12 08:54 pmSSE 7.0 8.0------------
2024-06-12 08:48 pmSSE 8.0 8.9------------
2024-06-12 08:42 pmSSE 8.0 8.9------------
2024-06-12 08:36 pmSSE 8.0 9.9------------
2024-06-12 08:30 pm S 8.0 8.9------------
2024-06-12 08:24 pm S 8.0 8.9------------
2024-06-12 08:18 pm S 8.9 9.9------ 74.7-----
2024-06-12 08:12 pmSSE 8.9 9.9------ 74.7-----
2024-06-12 08:06 pmSSE 8.9 9.9------ 74.7-----
2024-06-12 08:00 pmSSE 8.9 9.9------------
2024-06-12 07:54 pmSSE 8.9 9.9------------
2024-06-12 07:48 pmSSE 9.9 11.1------------
2024-06-12 07:42 pmSSE 11.1 12.0------------
2024-06-12 07:36 pmSSE 11.1 12.0------------
2024-06-12 07:30 pmSSE 9.9 11.1------ 75.2-----
2024-06-12 07:24 pmSSE 9.9 11.1------ 75.2-----
2024-06-12 07:00 pm SE 7.0 8.9------------
2024-06-12 06:54 pmSSE 9.9 11.1------------
2024-06-12 06:48 pmSSE 9.9 11.1------------
2024-06-12 06:42 pmSSE 8.9 9.9------------
2024-06-12 06:36 pmSSE 11.1 12.0------------
2024-06-12 06:30 pmSSE 11.1 11.1------ 75.4-----
2024-06-12 06:24 pmSSE 8.9 11.1------ 75.4-----
2024-06-12 06:18 pmSSE 9.9 11.1------------
2024-06-12 06:12 pmSSE 8.9 11.1------------
2024-06-12 06:06 pmSSE 8.9 11.1------------
2024-06-12 06:00 pm SE 6.0 7.0------------
2024-06-12 05:54 pmSSE 8.9 11.1------------